Time;durP1;ratioP1;P1;durP2;ratioP2;P2;SDS_P1;SDS_P2;PMS_P1;PMS_P2;Temp;Humidity;BMP_temperature;BMP_pressure;BME280_temperature;BME280_humidity;BME280_pressure;Samples;Min_cycle;Max_cycle;Signal;HPM_P1;HPM_P2
2024/04/05 00:01:29;;;;;;;3.05;0.80;;;;;;;8.30;61.62;95031.66;5053401;28;20036;-77
2024/04/05 00:03:55;;;;;;;2.13;0.80;;;;;;;8.16;61.84;95019.72;5036665;28;20486;-78
2024/04/05 00:06:20;;;;;;;1.63;0.80;;;;;;;7.94;62.06;95035.03;5027107;28;20067;-78
2024/04/05 00:08:46;;;;;;;2.67;0.70;;;;;;;8.13;62.49;95037.19;5054214;28;20042;-78
2024/04/05 00:11:11;;;;;;;1.33;0.70;;;;;;;8.05;62.15;95017.00;5053350;28;20513;-77
2024/04/05 00:13:37;;;;;;;1.25;0.60;;;;;;;8.10;62.27;95014.13;5053295;28;20028;-78
2024/04/05 00:16:05;;;;;;;2.08;0.70;;;;;;;8.23;62.12;95045.97;5086754;28;20032;-78
2024/04/05 00:18:34;;;;;;;2.33;0.70;;;;;;;7.76;60.18;94991.41;5070341;28;20052;-78
2024/04/05 00:21:03;;;;;;;1.20;0.65;;;;;;;7.76;60.18;95012.09;5054027;28;20049;-78
2024/04/05 00:23:28;;;;;;;1.52;0.77;;;;;;;7.91;60.42;95038.69;5055477;28;20312;-78
2024/04/05 00:26:06;;;;;;;2.65;0.80;;;;;;;7.97;59.70;95034.84;5074354;28;20402;-77
2024/04/05 00:28:33;;;;;;;2.47;0.93;;;;;;;8.08;60.00;95029.75;5046641;28;20032;-77
2024/04/05 00:30:59;;;;;;;1.35;0.60;;;;;;;8.06;60.34;95031.63;5054086;28;20033;-77
2024/04/05 00:33:24;;;;;;;1.10;0.60;;;;;;;8.16;59.72;95031.78;5062548;28;20041;-77
2024/04/05 00:35:54;;;;;;;1.52;0.80;;;;;;;8.20;60.19;95015.13;5075641;28;20032;-77
2024/04/05 00:38:19;;;;;;;1.20;0.75;;;;;;;8.23;58.64;95038.22;5027065;28;20430;-78
2024/04/05 00:40:45;;;;;;;1.00;0.68;;;;;;;8.38;60.14;95031.94;5053901;28;20037;-78
2024/04/05 00:43:11;;;;;;;1.60;0.75;;;;;;;8.35;60.31;95029.56;5048701;28;20025;-76
2024/04/05 00:45:37;;;;;;;3.47;1.13;;;;;;;8.12;59.73;95026.00;5039044;28;20033;-78
2024/04/05 00:48:02;;;;;;;1.40;0.73;;;;;;;7.96;60.93;95025.44;5056751;28;20035;-78
2024/04/05 00:50:30;;;;;;;1.40;0.80;;;;;;;8.14;60.96;95020.75;5055639;28;20037;-78
2024/04/05 00:52:59;;;;;;;2.58;1.10;;;;;;;8.09;60.67;95022.81;5073443;28;20032;-77
2024/04/05 00:55:26;;;;;;;3.47;0.90;;;;;;;8.11;61.34;95033.88;5057213;28;20047;-77
2024/04/05 00:57:51;;;;;;;4.22;1.67;;;;;;;7.92;61.46;95048.09;5056092;28;20067;-77
2024/04/05 01:00:18;;;;;;;1.80;1.00;;;;;;;7.89;61.99;95052.66;5059469;28;20072;-76
2024/04/05 01:02:43;;;;;;;2.20;1.00;;;;;;;7.96;61.50;95053.88;5073353;28;20021;-78
2024/04/05 01:05:09;;;;;;;1.50;0.90;;;;;;;7.59;61.91;95049.44;5056581;28;20047;-77
2024/04/05 01:07:34;;;;;;;1.90;1.05;;;;;;;7.73;62.73;95068.38;5052418;28;20021;-77
2024/04/05 01:10:00;;;;;;;1.08;0.65;;;;;;;7.58;62.27;95058.16;5055618;28;20486;-77
2024/04/05 01:12:25;;;;;;;2.10;1.00;;;;;;;7.34;63.58;95052.03;5056468;28;20406;-77
2024/04/05 01:14:50;;;;;;;1.35;0.70;;;;;;;7.54;63.30;95064.44;5056036;28;20490;-77
2024/04/05 01:17:16;;;;;;;1.65;0.80;;;;;;;7.31;63.61;95070.31;5070788;28;20024;-77
2024/04/05 01:19:41;;;;;;;1.75;0.85;;;;;;;7.50;63.78;95069.94;5055850;28;20060;-77
2024/04/05 01:22:11;;;;;;;1.88;0.90;;;;;;;7.50;63.47;95073.34;5052854;28;20021;-77
2024/04/05 01:24:37;;;;;;;1.33;0.70;;;;;;;7.38;63.38;95056.03;5036967;28;20044;-77
2024/04/05 01:27:04;;;;;;;1.77;0.90;;;;;;;7.43;64.04;95081.59;5038129;28;20418;-77
2024/04/05 01:29:29;;;;;;;1.95;0.90;;;;;;;7.26;63.90;95069.78;5073515;28;20115;-77
2024/04/05 01:31:54;;;;;;;1.40;0.90;;;;;;;7.28;64.69;95073.09;5070840;28;20506;-77
2024/04/05 01:34:20;;;;;;;2.63;1.10;;;;;;;7.29;64.42;95074.75;5053590;28;20037;-77
2024/04/05 01:36:45;;;;;;;3.10;0.90;;;;;;;7.12;65.18;95073.28;5058059;28;20029;-77
2024/04/05 01:39:10;;;;;;;2.17;0.82;;;;;;;6.97;64.98;95076.88;5074222;28;20040;-77
2024/04/05 01:41:36;;;;;;;1.75;1.00;;;;;;;6.85;65.43;95078.44;5072290;28;20039;-78
2024/04/05 01:44:03;;;;;;;3.13;0.98;;;;;;;7.08;65.47;95080.41;5054969;28;20479;-77
2024/04/05 01:46:29;;;;;;;1.75;0.70;;;;;;;7.08;64.35;95072.66;5056817;28;20529;-77
2024/04/05 01:48:54;;;;;;;1.92;0.95;;;;;;;7.07;64.86;95065.00;5034190;28;20028;-77
2024/04/05 01:51:20;;;;;;;2.60;0.90;;;;;;;6.83;65.28;95042.41;5037935;28;20386;-78
2024/04/05 01:53:45;;;;;;;1.50;0.80;;;;;;;6.71;65.82;95031.13;5068853;28;20067;-78
2024/04/05 01:56:10;;;;;;;2.10;1.02;;;;;;;6.72;65.77;95052.59;5068724;28;20036;-77
2024/04/05 01:58:37;;;;;;;1.95;0.90;;;;;;;6.98;65.79;95050.91;5052529;28;20028;-77
2024/04/05 02:01:03;;;;;;;2.22;1.00;;;;;;;6.92;65.26;95053.91;5058659;28;20486;-78
2024/04/05 02:03:29;;;;;;;1.55;0.77;;;;;;;6.83;64.88;95072.56;5067568;28;20105;-77
2024/04/05 02:05:54;;;;;;;2.28;0.90;;;;;;;6.89;64.65;95074.75;5052688;28;20558;-78
2024/04/05 02:08:19;;;;;;;3.67;0.90;;;;;;;6.90;65.40;95058.34;5052056;28;20086;-77
2024/04/05 02:10:45;;;;;;;2.63;0.90;;;;;;;7.20;65.28;95070.19;5054409;28;20407;-77
2024/04/05 02:13:11;;;;;;;2.95;0.90;;;;;;;7.00;65.10;95053.41;5061990;28;20491;-77
2024/04/05 02:15:36;;;;;;;2.05;0.98;;;;;;;6.81;64.86;95031.34;5067486;28;20036;-77
2024/04/05 02:18:03;;;;;;;2.22;0.80;;;;;;;7.07;63.91;95070.97;5053052;28;20025;-78
2024/04/05 02:20:29;;;;;;;2.58;1.00;;;;;;;7.04;64.17;95065.19;5051721;28;20041;-78
2024/04/05 02:22:54;;;;;;;2.47;1.00;;;;;;;7.07;64.91;95075.31;5046925;28;20508;-77
2024/04/05 02:25:20;;;;;;;2.85;0.90;;;;;;;7.23;64.69;95077.75;5071993;28;20097;-77
2024/04/05 02:27:46;;;;;;;2.65;1.38;;;;;;;7.12;64.62;95084.44;5071487;28;20020;-77
2024/04/05 02:30:11;;;;;;;1.70;0.90;;;;;;;7.14;64.71;95074.81;5069969;28;20490;-77
2024/04/05 02:32:36;;;;;;;1.92;1.08;;;;;;;7.15;64.90;95091.16;5064330;28;20051;-77
2024/04/05 02:35:02;;;;;;;2.42;0.90;;;;;;;7.15;64.80;95086.81;5035151;28;20079;-78
2024/04/05 02:37:27;;;;;;;3.30;0.90;;;;;;;7.10;65.27;95096.63;5051776;28;20118;-78
2024/04/05 02:39:53;;;;;;;3.25;1.10;;;;;;;6.76;65.97;95097.94;5056878;28;20035;-78
2024/04/05 02:42:18;;;;;;;1.77;1.00;;;;;;;6.89;65.85;95096.25;5055387;28;20036;-78
2024/04/05 02:44:44;;;;;;;2.45;1.23;;;;;;;6.69;66.12;95107.03;5051216;28;20158;-78
2024/04/05 02:47:12;;;;;;;1.77;0.90;;;;;;;6.32;67.20;95067.16;5051159;28;20036;-78
2024/04/05 02:49:37;;;;;;;2.28;1.00;;;;;;;6.70;66.65;95101.75;5063715;28;20040;-78
2024/04/05 02:52:03;;;;;;;1.75;0.90;;;;;;;6.74;66.18;95110.13;5071269;28;20580;-78
2024/04/05 02:54:28;;;;;;;1.52;0.93;;;;;;;6.63;66.80;95104.78;5072606;28;20036;-78
2024/04/05 02:56:54;;;;;;;1.85;1.10;;;;;;;6.59;67.00;95099.00;5071470;28;20028;-78
2024/04/05 02:59:19;;;;;;;2.33;1.05;;;;;;;6.65;66.85;95092.63;5061089;28;20036;-78
2024/04/05 03:01:46;;;;;;;2.45;0.90;;;;;;;6.61;67.07;95104.91;5052080;28;20051;-78
2024/04/05 03:04:12;;;;;;;1.75;0.90;;;;;;;6.70;66.90;95106.91;5050955;28;20032;-78
2024/04/05 03:06:37;;;;;;;3.47;1.25;;;;;;;6.51;67.70;95103.81;5051797;28;20039;-78
2024/04/05 03:09:03;;;;;;;2.25;1.17;;;;;;;6.61;67.56;95091.19;5064965;28;20419;-78
2024/04/05 03:11:28;;;;;;;2.20;1.10;;;;;;;6.59;67.49;95086.09;5050734;28;20472;-78
2024/04/05 03:13:54;;;;;;;2.67;1.13;;;;;;;6.67;67.45;95103.69;5050859;28;20032;-78
2024/04/05 03:16:20;;;;;;;2.05;0.98;;;;;;;6.60;67.78;95105.00;5058831;28;20414;-78
2024/04/05 03:18:45;;;;;;;2.50;0.93;;;;;;;6.63;67.56;95110.81;5050966;28;20056;-78
2024/04/05 03:21:11;;;;;;;1.80;1.10;;;;;;;6.46;67.63;95106.69;5052721;28;20033;-78
2024/04/05 03:23:36;;;;;;;2.17;1.10;;;;;;;6.40;68.05;95083.00;5034536;28;20037;-77
2024/04/05 03:26:02;;;;;;;2.08;1.13;;;;;;;6.31;68.43;95101.66;5071106;28;20033;-78
2024/04/05 03:28:27;;;;;;;3.05;0.98;;;;;;;5.94;69.95;95104.72;5071544;28;20024;-77
2024/04/05 03:30:53;;;;;;;3.58;1.05;;;;;;;6.24;69.89;95109.78;5070481;28;20032;-78
2024/04/05 03:33:18;;;;;;;2.13;1.02;;;;;;;6.38;69.71;95113.22;5068541;28;20212;-79
2024/04/05 03:35:43;;;;;;;3.58;1.42;;;;;;;5.92;69.84;95119.41;5070363;28;20043;-78
2024/04/05 03:38:09;;;;;;;2.28;1.20;;;;;;;5.80;70.49;95107.25;5070230;28;20486;-78
2024/04/05 03:40:39;;;;;;;2.58;1.10;;;;;;;5.80;70.38;95118.38;5071800;28;20036;-78
2024/04/05 03:43:05;;;;;;;6.00;1.10;;;;;;;5.73;70.57;95109.34;5052918;28;20745;-77
2024/04/05 03:45:31;;;;;;;2.55;1.00;;;;;;;5.96;70.68;95102.88;5064623;28;20040;-78
2024/04/05 03:47:56;;;;;;;1.80;0.90;;;;;;;6.04;70.78;95099.81;5049896;28;20025;-78
2024/04/05 03:50:22;;;;;;;3.15;1.42;;;;;;;6.23;70.23;95102.94;5050212;28;20029;-78
2024/04/05 03:52:47;;;;;;;2.65;1.08;;;;;;;6.02;70.11;95106.84;5051283;28;20028;-78
2024/04/05 03:55:13;;;;;;;2.38;1.42;;;;;;;6.20;69.60;95095.38;5052796;28;20036;-78
2024/04/05 03:57:42;;;;;;;2.53;1.10;;;;;;;6.20;68.97;95115.19;5049772;28;20254;-78
2024/04/05 04:00:08;;;;;;;2.40;1.00;;;;;;;6.15;69.61;95106.91;5051803;28;20029;-78
2024/04/05 04:02:33;;;;;;;3.13;1.38;;;;;;;6.19;69.86;95124.69;5053222;28;20040;-78
2024/04/05 04:04:59;;;;;;;3.42;1.38;;;;;;;5.78;70.51;95084.13;5058251;28;20503;-77
2024/04/05 04:07:24;;;;;;;2.53;1.08;;;;;;;5.98;70.29;95119.06;5050723;28;20029;-78
2024/04/05 04:09:50;;;;;;;2.70;1.20;;;;;;;6.04;70.16;95113.56;5063151;28;20040;-78
2024/04/05 04:12:15;;;;;;;3.15;1.05;;;;;;;6.33;69.73;95130.78;5069841;28;20025;-78
2024/04/05 04:14:41;;;;;;;1.92;1.15;;;;;;;6.28;68.99;95135.38;5069967;28;20037;-78
2024/04/05 04:17:06;;;;;;;2.42;1.30;;;;;;;6.37;68.44;95143.38;5052497;28;20433;-77
2024/04/05 04:19:32;;;;;;;4.30;1.50;;;;;;;6.51;68.35;95129.63;5058673;28;20061;-78
2024/04/05 04:21:58;;;;;;;2.63;0.93;;;;;;;6.60;68.68;95136.81;5016588;28;20430;-78
2024/04/05 04:24:23;;;;;;;2.22;1.10;;;;;;;6.69;68.85;95143.16;5051127;28;20032;-78
2024/04/05 04:26:48;;;;;;;3.47;1.20;;;;;;;6.91;68.56;95142.66;5034842;28;20106;-78
2024/04/05 04:29:14;;;;;;;2.25;1.00;;;;;;;6.81;68.70;95144.16;5033233;28;20510;-78
2024/04/05 04:31:39;;;;;;;2.33;1.10;;;;;;;6.80;69.20;95140.75;5062421;28;20494;-78
2024/04/05 04:34:05;;;;;;;2.00;0.90;;;;;;;6.85;68.53;95154.19;5069716;28;20173;-78
2024/04/05 04:36:30;;;;;;;2.95;1.08;;;;;;;7.00;68.85;95159.31;5061898;28;20052;-78
2024/04/05 04:38:56;;;;;;;2.03;1.10;;;;;;;6.80;68.50;95156.22;5070208;28;20025;-78
2024/04/05 04:41:21;;;;;;;2.42;1.75;;;;;;;6.80;68.38;95142.47;5053082;28;20056;-78
2024/04/05 04:43:46;;;;;;;2.10;1.35;;;;;;;7.08;68.58;95157.91;5052933;28;20029;-78
2024/04/05 04:46:12;;;;;;;2.80;1.70;;;;;;;7.17;68.43;95161.66;5063033;28;20037;-78
2024/04/05 04:48:38;;;;;;;5.15;2.00;;;;;;;7.07;67.96;95158.81;5062465;28;20101;-78
2024/04/05 04:51:04;;;;;;;3.80;2.13;;;;;;;7.16;67.07;95166.00;5073280;28;20371;-78
2024/04/05 04:53:29;;;;;;;4.55;2.10;;;;;;;7.13;67.93;95157.59;5035030;28;20029;-76
2024/04/05 04:55:55;;;;;;;3.60;1.88;;;;;;;7.66;67.73;95170.56;5042927;28;20037;-78
2024/04/05 04:58:22;;;;;;;2.75;1.60;;;;;;;8.51;65.11;95174.34;5052815;28;20027;-78
2024/04/05 05:00:48;;;;;;;2.58;1.75;;;;;;;9.26;63.04;95179.44;5053251;28;20043;-78
2024/04/05 05:03:14;;;;;;;2.75;1.80;;;;;;;10.03;59.79;95173.81;5052606;28;20029;-78
2024/04/05 05:05:39;;;;;;;2.28;1.50;;;;;;;11.07;56.92;95183.19;5050297;28;20043;-78
2024/04/05 05:08:05;;;;;;;2.65;1.40;;;;;;;12.03;53.52;95177.19;5068495;28;20041;-77
2024/04/05 05:10:31;;;;;;;5.40;2.00;;;;;;;12.80;51.58;95178.56;5063896;28;20064;-78
2024/04/05 05:12:56;;;;;;;3.53;2.50;;;;;;;13.27;49.75;95182.28;5053430;28;20504;-79
2024/04/05 05:15:21;;;;;;;2.67;1.67;;;;;;;13.76;48.04;95184.94;5064177;28;20079;-78
2024/04/05 05:17:47;;;;;;;5.80;2.50;;;;;;;14.31;46.47;95183.34;5062598;28;20029;-79
2024/04/05 05:20:16;;;;;;;4.32;2.38;;;;;;;15.02;44.76;95194.31;5052692;28;20531;-78
2024/04/05 05:22:42;;;;;;;5.65;2.08;;;;;;;15.50;43.24;95190.59;5048344;28;20113;-78
2024/04/05 05:25:08;;;;;;;4.47;2.13;;;;;;;15.50;43.32;95180.94;5035020;28;20124;-77
2024/04/05 05:27:34;;;;;;;4.15;2.42;;;;;;;15.28;43.59;95194.44;5035145;28;20037;-78
2024/04/05 05:29:59;;;;;;;3.72;2.90;;;;;;;14.89;45.52;95194.66;5070804;28;20031;-77
2024/04/05 05:32:25;;;;;;;5.18;2.30;;;;;;;13.68;47.45;95174.34;5056049;28;20043;-76
2024/04/05 05:34:50;;;;;;;5.47;1.88;;;;;;;13.68;48.38;95187.41;5054379;28;20089;-78
2024/04/05 05:37:16;;;;;;;4.80;2.40;;;;;;;13.72;47.79;95204.44;5038858;28;20032;-79
2024/04/05 05:39:41;;;;;;;4.97;2.40;;;;;;;13.29;49.12;95192.56;5071020;28;20466;-73
2024/04/05 05:42:08;;;;;;;5.22;2.17;;;;;;;13.54;48.18;95186.84;5036437;28;20028;-79
2024/04/05 05:44:33;;;;;;;5.90;2.63;;;;;;;13.63;48.07;95198.25;5036656;28;20086;-80
2024/04/05 05:46:58;;;;;;;6.20;2.90;;;;;;;13.44;47.50;95193.84;5066966;28;20025;-79
2024/04/05 05:49:24;;;;;;;6.45;2.80;;;;;;;13.44;47.39;95196.44;5064432;28;20556;-79
2024/04/05 05:51:49;;;;;;;7.55;2.92;;;;;;;13.31;47.90;95196.69;5048937;28;20032;-74
2024/04/05 05:54:15;;;;;;;9.95;3.60;;;;;;;13.18;47.36;95198.72;5038361;28;20028;-78
2024/04/05 05:56:41;;;;;;;11.93;3.08;;;;;;;13.36;47.59;95214.56;5068383;28;20578;-78
2024/04/05 05:59:06;;;;;;;15.32;3.47;;;;;;;13.25;46.52;95206.81;5066733;28;20036;-78
2024/04/05 06:01:32;;;;;;;6.60;2.83;;;;;;;13.21;47.04;95208.88;5042744;28;20029;-78
2024/04/05 06:03:57;;;;;;;8.30;2.78;;;;;;;13.31;47.59;95214.97;5019096;28;20024;-78
2024/04/05 06:06:25;;;;;;;7.85;3.75;;;;;;;13.10;47.67;95207.19;5071038;28;20032;-78
2024/04/05 06:08:51;;;;;;;14.20;3.63;;;;;;;12.97;47.69;95211.81;5048861;28;20025;-78
2024/04/05 06:11:16;;;;;;;4.47;2.42;;;;;;;12.56;48.30;95223.16;5035555;28;20092;-78
2024/04/05 06:13:41;;;;;;;5.82;2.63;;;;;;;12.67;48.10;95210.03;5018429;28;20025;-77
2024/04/05 06:16:07;;;;;;;9.25;2.92;;;;;;;13.47;46.61;95216.25;5052440;28;20029;-77
2024/04/05 06:18:32;;;;;;;10.63;3.65;;;;;;;13.41;46.63;95215.00;5069907;28;20418;-77
2024/04/05 06:20:58;;;;;;;9.23;2.95;;;;;;;13.10;46.97;95203.78;5072114;28;20044;-78
2024/04/05 06:23:24;;;;;;;7.97;2.70;;;;;;;13.35;46.60;95208.53;5054021;28;20025;-77
2024/04/05 06:25:57;;;;;;;10.70;2.70;;;;;;;13.06;47.19;95211.00;5070835;28;20067;-77
2024/04/05 06:28:22;;;;;;;8.27;2.92;;;;;;;13.02;47.55;95214.03;5039618;28;20399;-78
2024/04/05 06:30:48;;;;;;;13.43;2.55;;;;;;;13.13;47.77;95224.38;5064959;28;20047;-75
2024/04/05 06:33:14;;;;;;;14.27;2.50;;;;;;;13.41;47.63;95228.84;5072674;28;20051;-75
2024/04/05 06:35:40;;;;;;;14.27;3.00;;;;;;;13.18;47.67;95212.56;5037167;28;20036;-76
2024/04/05 06:38:05;;;;;;;10.25;2.90;;;;;;;13.59;46.77;95223.78;5052552;28;20127;-75
2024/04/05 06:40:31;;;;;;;11.77;3.42;;;;;;;13.56;47.25;95236.31;5054891;28;20079;-76
2024/04/05 06:42:56;;;;;;;7.63;2.53;;;;;;;13.90;46.32;95215.88;5051266;28;20078;-76
2024/04/05 06:45:22;;;;;;;7.85;2.50;;;;;;;14.14;45.80;95225.88;5051046;28;20102;-76
2024/04/05 06:47:49;;;;;;;7.53;2.38;;;;;;;14.03;45.75;95239.91;5034450;28;20024;-75
2024/04/05 06:50:14;;;;;;;7.13;2.20;;;;;;;14.33;45.66;95239.91;5052673;28;20037;-76
2024/04/05 06:52:40;;;;;;;4.25;2.42;;;;;;;13.96;46.96;95248.44;5034504;28;20033;-76
2024/04/05 06:55:05;;;;;;;6.85;2.40;;;;;;;13.79;47.55;95245.56;5051087;28;20045;-76
2024/04/05 06:57:31;;;;;;;7.32;2.65;;;;;;;13.98;48.09;95255.16;5052231;28;20040;-76
2024/04/05 06:59:56;;;;;;;8.00;2.63;;;;;;;13.85;48.46;95255.44;5051190;28;20418;-76
2024/04/05 07:02:22;;;;;;;9.13;3.50;;;;;;;13.88;48.34;95240.47;5050929;28;20475;-77
2024/04/05 07:04:48;;;;;;;8.85;3.10;;;;;;;13.79;49.13;95263.81;5050817;28;20040;-77
2024/04/05 07:07:13;;;;;;;9.30;2.92;;;;;;;13.79;48.40;95248.16;5034377;28;20040;-78
2024/04/05 07:09:39;;;;;;;7.75;2.70;;;;;;;14.20;47.88;95272.34;5050792;28;20045;-76
2024/04/05 07:12:06;;;;;;;8.43;2.55;;;;;;;14.60;46.29;95274.00;5050830;28;20037;-76
2024/04/05 07:14:31;;;;;;;4.38;2.30;;;;;;;14.48;46.37;95270.66;5051986;28;20479;-76
2024/04/05 07:16:57;;;;;;;11.15;2.00;;;;;;;14.35;46.22;95266.69;5050890;28;20033;-76
2024/04/05 07:19:25;;;;;;;9.13;2.00;;;;;;;14.58;45.15;95278.53;5050814;28;20061;-76
2024/04/05 07:21:50;;;;;;;4.22;2.20;;;;;;;14.56;45.68;95277.84;5034084;28;20517;-76
2024/04/05 07:24:16;;;;;;;7.88;2.28;;;;;;;14.57;46.01;95268.22;5050738;28;20028;-77
2024/04/05 07:26:44;;;;;;;4.55;1.70;;;;;;;14.96;43.67;95263.75;5033970;28;20040;-76
2024/04/05 07:29:10;;;;;;;3.85;1.70;;;;;;;15.04;43.87;95266.44;5051899;28;20025;-76
2024/04/05 07:31:36;;;;;;;4.32;1.75;;;;;;;15.41;42.22;95270.84;5033936;28;20454;-76
2024/04/05 07:34:05;;;;;;;6.65;1.65;;;;;;;15.74;41.53;95247.66;5050427;28;20025;-76
2024/04/05 07:36:30;;;;;;;4.13;2.08;;;;;;;15.95;40.81;95255.25;5050348;28;20044;-76
2024/04/05 07:38:56;;;;;;;6.15;2.20;;;;;;;16.20;40.79;95249.25;5050461;28;20098;-76
2024/04/05 07:41:21;;;;;;;9.52;2.00;;;;;;;16.53;39.83;95257.38;5033886;28;20119;-76
2024/04/05 07:43:46;;;;;;;5.97;2.10;;;;;;;16.21;40.21;95250.06;5033655;28;20469;-76
2024/04/05 07:46:12;;;;;;;5.72;1.92;;;;;;;16.14;40.45;95257.72;5051778;28;20032;-76
2024/04/05 07:48:39;;;;;;;7.05;1.92;;;;;;;16.41;40.06;95261.19;5034004;28;20561;-76
2024/04/05 07:51:04;;;;;;;6.93;1.95;;;;;;;16.34;40.70;95260.19;5050028;28;20055;-76
2024/04/05 07:53:30;;;;;;;4.30;1.80;;;;;;;16.31;40.65;95259.50;5051155;28;20029;-76
2024/04/05 07:55:55;;;;;;;6.07;1.90;;;;;;;16.70;40.12;95272.25;5050249;28;20485;-76
2024/04/05 07:58:21;;;;;;;6.65;2.10;;;;;;;16.28;40.68;95258.97;5033521;28;20483;-76
2024/04/05 08:00:47;;;;;;;6.60;2.40;;;;;;;16.38;40.75;95272.84;5050064;28;20037;-75
2024/04/05 08:03:12;;;;;;;10.43;2.38;;;;;;;16.74;39.39;95270.13;5049779;28;20028;-75
2024/04/05 08:05:38;;;;;;;9.00;2.45;;;;;;;17.25;39.16;95270.31;5033451;28;20087;-76
2024/04/05 08:08:03;;;;;;;7.25;2.13;;;;;;;17.26;39.09;95256.19;5033449;28;20033;-76
2024/04/05 08:10:31;;;;;;;7.13;2.90;;;;;;;16.90;39.39;95253.72;5033396;28;20044;-76
2024/04/05 08:13:00;;;;;;;9.05;2.22;;;;;;;17.21;38.96;95259.28;5051039;28;20099;-75
2024/04/05 08:15:31;;;;;;;5.65;2.28;;;;;;;17.69;38.33;95263.09;5050127;28;20068;-76
2024/04/05 08:17:57;;;;;;;12.25;3.40;;;;;;;17.36;38.23;95249.84;5033102;28;20040;-76
2024/04/05 08:20:23;;;;;;;7.95;2.40;;;;;;;17.53;38.72;95260.41;5049992;28;20045;-76
2024/04/05 08:22:48;;;;;;;5.22;1.58;;;;;;;17.75;38.00;95261.63;5049563;28;20037;-76
2024/04/05 08:25:14;;;;;;;4.97;1.52;;;;;;;18.02;35.56;95269.25;5049766;28;20439;-76
2024/04/05 08:27:45;;;;;;;3.35;1.10;;;;;;;18.46;35.02;95263.72;5033267;28;20079;-76
2024/04/05 08:30:18;;;;;;;4.30;1.40;;;;;;;18.78;34.74;95253.34;5033283;28;20094;-76
2024/04/05 08:32:43;;;;;;;4.95;1.63;;;;;;;19.08;33.72;95260.53;5049816;28;20029;-76
2024/04/05 08:35:16;;;;;;;4.43;1.50;;;;;;;19.15;33.23;95256.25;5049819;28;20021;-76
2024/04/05 08:37:43;;;;;;;4.25;1.70;;;;;;;18.68;33.54;95249.06;5049807;28;20044;-76
2024/04/05 08:40:09;;;;;;;4.25;1.38;;;;;;;18.69;33.97;95255.16;5035077;28;20475;-76
2024/04/05 08:42:35;;;;;;;3.05;0.90;;;;;;;19.08;32.88;95249.19;5053587;28;20036;-76
2024/04/05 08:45:01;;;;;;;1.75;0.57;;;;;;;19.38;30.09;95248.41;5053437;28;20029;-76
2024/04/05 08:47:26;;;;;;;2.03;0.70;;;;;;;19.57;29.32;95222.66;5036874;28;20060;-76
2024/04/05 08:49:52;;;;;;;2.47;1.20;;;;;;;19.86;30.34;95237.84;5037200;28;20029;-76
2024/04/05 08:52:17;;;;;;;2.45;0.80;;;;;;;19.77;28.55;95231.81;5036803;28;20097;-76
2024/04/05 08:54:43;;;;;;;2.97;1.50;;;;;;;20.04;29.29;95238.41;5054655;28;20078;-76
2024/04/05 08:57:09;;;;;;;2.67;0.80;;;;;;;20.28;29.83;95239.22;5036766;28;20027;-76
2024/04/05 08:59:35;;;;;;;3.30;0.55;;;;;;;20.15;28.71;95226.63;5036791;28;20021;-76
2024/04/05 09:02:01;;;;;;;1.52;0.63;;;;;;;20.42;26.79;95232.34;5036683;28;20041;-76
2024/04/05 09:04:26;;;;;;;1.90;0.63;;;;;;;20.37;27.96;95237.34;5054186;28;20506;-76
2024/04/05 09:06:52;;;;;;;2.28;0.60;;;;;;;19.76;28.38;95226.72;5053656;28;20037;-76
2024/04/05 09:09:24;;;;;;;2.70;0.60;;;;;;;19.51;29.00;95205.72;5063054;28;20059;-76
2024/04/05 09:11:50;;;;;;;1.02;0.47;;;;;;;19.47;28.51;95206.25;5072772;28;20037;-76
2024/04/05 09:14:15;;;;;;;0.93;0.45;;;;;;;19.31;28.49;95241.41;5073003;28;20086;-76
2024/04/05 09:16:42;;;;;;;0.88;0.40;;;;;;;19.97;28.22;95236.63;5073044;28;20090;-76
2024/04/05 09:19:11;;;;;;;0.93;0.35;;;;;;;19.73;27.62;95219.16;5073167;28;20041;-76
2024/04/05 09:21:43;;;;;;;2.38;0.60;;;;;;;19.47;28.36;95224.69;5056893;28;20044;-77
2024/04/05 09:24:09;;;;;;;1.23;0.50;;;;;;;19.28;28.68;95239.06;5056441;28;20042;-76
2024/04/05 09:26:34;;;;;;;1.15;0.55;;;;;;;19.16;29.17;95246.53;5072846;28;20044;-76
2024/04/05 09:29:01;;;;;;;2.17;0.60;;;;;;;19.39;29.41;95239.53;5074130;28;20036;-76
2024/04/05 09:31:26;;;;;;;1.77;0.50;;;;;;;19.07;28.64;95227.31;5072885;28;20486;-76
2024/04/05 09:34:08;;;;;;;2.50;0.63;;;;;;;19.57;28.12;95236.66;5039478;28;20036;-75
2024/04/05 09:36:36;;;;;;;1.08;0.55;;;;;;;19.37;29.08;95233.63;5055879;28;20029;-75
2024/04/05 09:39:03;;;;;;;1.50;0.70;;;;;;;19.26;29.65;95230.53;5072658;28;20043;-76
2024/04/05 09:41:32;;;;;;;1.33;0.60;;;;;;;18.99;29.64;95235.22;5072616;28;20260;-75
2024/04/05 09:43:58;;;;;;;2.40;0.85;;;;;;;19.06;28.88;95233.56;5072570;28;20035;-76
2024/04/05 09:46:24;;;;;;;1.75;0.60;;;;;;;19.30;28.71;95237.09;5072541;28;20040;-76
2024/04/05 09:48:50;;;;;;;1.45;0.68;;;;;;;19.12;29.25;95232.06;5073536;28;20027;-75
2024/04/05 09:51:16;;;;;;;0.75;0.50;;;;;;;19.27;28.98;95226.91;5055405;28;20085;-76
2024/04/05 09:53:45;;;;;;;2.03;0.60;;;;;;;19.17;29.93;95227.94;5072480;28;20041;-76
2024/04/05 09:56:12;;;;;;;3.28;0.70;;;;;;;19.33;29.21;95231.50;5056338;28;20449;-76
2024/04/05 09:58:39;;;;;;;0.80;0.50;;;;;;;19.24;29.00;95224.63;5072097;28;20525;-75
2024/04/05 10:01:08;;;;;;;1.90;0.70;;;;;;;19.11;29.61;95233.88;5056010;28;20119;-76
2024/04/05 10:03:33;;;;;;;1.30;0.60;;;;;;;18.82;29.76;95223.91;5072307;28;20082;-75
2024/04/05 10:06:11;;;;;;;1.45;0.60;;;;;;;19.43;29.85;95219.75;5055454;28;20025;-76
2024/04/05 10:08:36;;;;;;;2.00;0.60;;;;;;;19.55;30.08;95233.38;5055645;28;20035;-76
2024/04/05 10:11:14;;;;;;;2.72;0.60;;;;;;;19.56;29.88;95202.59;5055300;28;20028;-76
2024/04/05 10:13:40;;;;;;;1.50;0.55;;;;;;;19.96;29.18;95221.81;5072098;28;20055;-76
2024/04/05 10:16:25;;;;;;;2.38;0.75;;;;;;;20.36;28.25;95222.50;5072502;28;20559;-76
2024/04/05 10:18:51;;;;;;;2.78;0.60;;;;;;;19.54;29.22;95220.38;5073186;28;20106;-75
2024/04/05 10:21:17;;;;;;;1.45;0.60;;;;;;;19.48;29.96;95218.44;5071696;28;20036;-76
2024/04/05 10:23:44;;;;;;;1.92;0.70;;;;;;;19.71;29.72;95215.88;5071640;28;20107;-76
2024/04/05 10:26:17;;;;;;;1.45;0.60;;;;;;;19.90;29.12;95212.78;5038985;28;20471;-76
2024/04/05 10:28:42;;;;;;;3.65;1.10;;;;;;;20.00;29.17;95183.53;5056260;28;20031;-76
2024/04/05 10:31:10;;;;;;;2.42;0.80;;;;;;;20.02;28.74;95192.91;5055381;28;20024;-76
2024/04/05 10:33:38;;;;;;;2.95;0.60;;;;;;;19.63;29.58;95195.63;5071541;28;20079;-76
2024/04/05 10:36:04;;;;;;;2.80;1.00;;;;;;;19.79;28.77;95194.75;5071633;28;20482;-76
2024/04/05 10:38:29;;;;;;;3.47;0.70;;;;;;;19.58;29.73;95198.75;5054945;28;20052;-76
2024/04/05 10:40:58;;;;;;;3.17;0.70;;;;;;;19.49;30.40;95209.53;5073038;28;20032;-76
2024/04/05 10:43:23;;;;;;;4.25;0.73;;;;;;;19.42;30.12;95193.59;5071780;28;20028;-76
2024/04/05 10:45:51;;;;;;;1.60;0.80;;;;;;;19.82;30.63;95194.38;5038061;28;20028;-76
2024/04/05 10:48:17;;;;;;;2.60;0.47;;;;;;;20.14;29.11;95192.50;5055042;28;20046;-76
2024/04/05 10:50:42;;;;;;;3.97;0.77;;;;;;;19.68;30.70;95190.69;5071433;28;20024;-76
2024/04/05 10:53:08;;;;;;;2.08;0.90;;;;;;;19.52;30.54;95186.28;5054721;28;20047;-76
2024/04/05 10:55:33;;;;;;;2.20;0.60;;;;;;;19.51;30.51;95175.94;5071254;28;20028;-77
2024/04/05 10:58:02;;;;;;;1.42;0.60;;;;;;;19.75;30.74;95169.72;5054488;28;20041;-75
2024/04/05 11:00:28;;;;;;;2.28;0.57;;;;;;;19.81;31.17;95182.22;5071074;28;20020;-76
2024/04/05 11:02:54;;;;;;;2.55;0.70;;;;;;;19.62;30.54;95188.72;5053877;28;20094;-76
2024/04/05 11:05:20;;;;;;;2.58;0.70;;;;;;;19.60;31.00;95190.69;5054382;28;20036;-76
2024/04/05 11:07:45;;;;;;;1.20;0.50;;;;;;;19.49;30.52;95193.72;5071007;28;20090;-76
2024/04/05 11:10:14;;;;;;;2.42;0.85;;;;;;;19.85;29.49;95184.31;5054422;28;20078;-76
2024/04/05 11:12:40;;;;;;;1.65;0.77;;;;;;;19.95;30.32;95199.09;5070761;28;20058;-77
2024/04/05 11:15:05;;;;;;;3.05;0.65;;;;;;;19.99;31.10;95195.91;5070748;28;20103;-77
2024/04/05 11:17:31;;;;;;;3.03;0.75;;;;;;;20.30;28.81;95192.38;5070756;28;20486;-76
2024/04/05 11:20:11;;;;;;;2.38;0.93;;;;;;;20.56;28.89;95189.41;5071131;28;20079;-76
2024/04/05 11:22:37;;;;;;;2.70;0.70;;;;;;;20.57;28.49;95169.09;5071921;28;20040;-76
2024/04/05 11:25:02;;;;;;;1.85;0.80;;;;;;;20.51;29.91;95184.63;5037439;28;20032;-76
2024/04/05 11:27:29;;;;;;;2.00;0.70;;;;;;;20.04;29.56;95169.84;5072188;28;20434;-76
2024/04/05 11:29:54;;;;;;;2.53;0.80;;;;;;;19.95;29.89;95189.38;5072083;28;20031;-76
2024/04/05 11:32:33;;;;;;;2.42;0.90;;;;;;;19.66;30.63;95189.22;5070686;28;20044;-76